createdAt,value
2019-03-11T00:02:17.798Z,53.55
2019-03-11T00:04:45.235Z,53.99
2019-03-11T00:07:12.743Z,54.23
2019-03-11T00:09:40.144Z,54.22
2019-03-11T00:12:07.535Z,54.20
2019-03-11T00:14:34.956Z,54.40
2019-03-11T00:17:02.371Z,54.52
2019-03-11T00:19:29.778Z,54.87
2019-03-11T00:21:57.194Z,54.82
2019-03-11T00:24:24.593Z,54.62
2019-03-11T00:26:51.985Z,54.43
2019-03-11T00:29:19.403Z,54.70
2019-03-11T00:31:46.809Z,55.44
2019-03-11T00:34:14.204Z,55.41
2019-03-11T00:36:41.616Z,55.36
2019-03-11T00:39:09.046Z,55.72
2019-03-11T00:41:36.637Z,55.85
2019-03-11T00:44:04.091Z,55.98
2019-03-11T00:46:31.478Z,56.00
2019-03-11T00:48:58.924Z,57.21
2019-03-11T00:51:26.323Z,56.59
2019-03-11T00:53:54.287Z,55.95
2019-03-11T00:56:21.753Z,56.32
2019-03-11T00:58:49.153Z,56.11
2019-03-11T01:01:16.569Z,56.18
2019-03-11T01:03:43.959Z,56.15
2019-03-11T01:06:11.389Z,56.22
2019-03-11T01:08:38.786Z,56.65
2019-03-11T01:11:06.197Z,56.49
2019-03-11T01:13:33.594Z,56.33
2019-03-11T01:16:01.014Z,56.28
2019-03-11T01:18:28.420Z,56.48
2019-03-11T01:20:55.840Z,56.17
2019-03-11T01:23:23.239Z,56.20
2019-03-11T01:25:50.654Z,56.13
2019-03-11T01:28:18.086Z,56.22
2019-03-11T01:30:45.503Z,56.19
2019-03-11T01:33:12.965Z,55.69
2019-03-11T01:35:40.366Z,55.82
2019-03-11T01:38:07.771Z,55.16
2019-03-11T01:40:35.188Z,52.51
2019-03-11T01:43:02.663Z,51.30
2019-03-11T01:45:30.062Z,51.56
2019-03-11T01:47:58.307Z,50.20
2019-03-11T01:50:25.722Z,50.95
2019-03-11T01:52:53.150Z,51.96
2019-03-11T01:55:20.556Z,51.82
2019-03-11T01:57:47.976Z,50.78
2019-03-11T02:00:16.197Z,50.00
2019-03-11T02:02:43.594Z,49.66
2019-03-11T02:05:10.994Z,50.55
2019-03-11T02:07:38.421Z,51.49
2019-03-11T02:10:05.903Z,51.98
2019-03-11T02:12:33.255Z,49.73
2019-03-11T02:15:00.647Z,47.48
2019-03-11T02:17:28.059Z,48.79
2019-03-11T02:19:55.451Z,49.70
2019-03-11T02:22:22.895Z,49.52
2019-03-11T02:24:50.293Z,49.14
2019-03-11T02:27:17.688Z,48.93
2019-03-11T02:29:45.099Z,48.57
2019-03-11T02:32:12.498Z,49.42
2019-03-11T02:34:40.013Z,50.03
2019-03-11T02:37:07.430Z,47.20
2019-03-11T02:39:34.817Z,47.28
2019-03-11T02:42:02.217Z,46.17
2019-03-11T02:44:29.622Z,45.75
2019-03-11T02:46:57.036Z,45.94
2019-03-11T02:49:24.595Z,45.83
2019-03-11T02:51:52.123Z,45.53
2019-03-11T02:54:19.533Z,45.46
2019-03-11T02:56:46.949Z,44.79
2019-03-11T02:59:14.378Z,44.87
2019-03-11T03:01:41.789Z,45.18
2019-03-11T03:04:09.210Z,44.97
2019-03-11T03:06:36.611Z,44.48
2019-03-11T03:09:04.034Z,44.84
2019-03-11T03:11:31.419Z,44.46
2019-03-11T03:13:58.918Z,44.65
2019-03-11T03:16:26.353Z,44.68
2019-03-11T03:18:54.110Z,45.03
2019-03-11T03:21:21.561Z,44.36
2019-03-11T03:23:49.034Z,44.27
2019-03-11T03:26:16.474Z,44.41
2019-03-11T03:28:43.936Z,44.62
2019-03-11T03:31:11.342Z,44.52
2019-03-11T03:33:38.748Z,44.55
2019-03-11T03:36:06.168Z,44.81
2019-03-11T03:38:33.774Z,44.83
2019-03-11T03:41:01.191Z,44.73
2019-03-11T03:43:28.681Z,44.61
2019-03-11T03:45:56.163Z,45.08
2019-03-11T03:48:23.584Z,44.92
2019-03-11T03:50:50.988Z,45.26
2019-03-11T03:53:18.385Z,45.44
2019-03-11T03:55:45.811Z,45.18
2019-03-11T03:58:13.226Z,45.44
2019-03-11T04:00:40.683Z,44.62
2019-03-11T04:03:08.425Z,44.95
2019-03-11T04:05:35.812Z,45.34
2019-03-11T04:08:03.229Z,45.04
2019-03-11T04:13:04.522Z,45.94
2019-03-11T04:15:31.945Z,45.72
2019-03-11T04:17:59.344Z,45.53
2019-03-11T04:20:26.840Z,46.01
2019-03-11T04:22:54.231Z,46.50
2019-03-11T04:25:21.646Z,46.76
2019-03-11T04:27:49.052Z,46.73
2019-03-11T04:30:17.320Z,46.73
2019-03-11T04:32:44.711Z,46.61
2019-03-11T04:35:12.104Z,46.71
2019-03-11T04:37:39.714Z,46.61
2019-03-11T04:40:07.106Z,46.82
2019-03-11T04:42:34.620Z,47.22
2019-03-11T04:45:02.079Z,47.26
2019-03-11T04:47:29.463Z,47.71
2019-03-11T04:49:56.922Z,47.33
2019-03-11T04:52:24.341Z,47.14
2019-03-11T04:54:51.742Z,47.36
2019-03-11T04:57:19.187Z,47.37
2019-03-11T04:59:46.582Z,47.75
2019-03-11T05:02:14.279Z,48.03
2019-03-11T05:04:41.675Z,47.32
2019-03-11T05:07:09.135Z,46.89
2019-03-11T05:09:36.857Z,47.09
2019-03-11T05:12:04.235Z,46.92
2019-03-11T05:14:31.636Z,46.93
2019-03-11T05:16:59.056Z,47.35
2019-03-11T05:19:26.455Z,47.42
2019-03-11T05:21:53.837Z,47.58
2019-03-11T05:24:21.258Z,47.21
2019-03-11T05:26:48.970Z,47.93
2019-03-11T05:29:16.354Z,48.57
2019-03-11T05:31:43.768Z,48.81
2019-03-11T05:34:11.156Z,48.95
2019-03-11T05:36:38.546Z,49.25
2019-03-11T05:39:05.951Z,49.37
2019-03-11T05:41:33.364Z,49.83
2019-03-11T05:44:00.734Z,50.34
2019-03-11T05:46:28.303Z,51.02
2019-03-11T05:48:55.705Z,51.76
2019-03-11T05:51:31.050Z,51.50
2019-03-11T05:53:50.504Z,52.14
2019-03-11T05:56:17.933Z,51.80
2019-03-11T05:58:45.350Z,52.08
2019-03-11T06:01:12.760Z,52.34
2019-03-11T06:03:40.211Z,52.84
2019-03-11T06:06:07.621Z,53.10
2019-03-11T06:08:35.109Z,53.06
2019-03-11T06:11:02.562Z,53.36
2019-03-11T06:13:35.891Z,53.22
2019-03-11T06:15:57.493Z,54.06
2019-03-11T06:18:37.681Z,54.68
2019-03-11T06:24:03.727Z,54.41
2019-03-11T06:26:31.158Z,54.74
2019-03-11T06:28:58.595Z,54.83
2019-03-11T06:31:26.121Z,54.80
2019-03-11T06:33:53.617Z,54.88
2019-03-11T06:36:21.021Z,55.66
2019-03-11T06:38:48.443Z,56.19
2019-03-11T06:41:15.855Z,56.41
2019-03-11T06:43:43.298Z,56.38
2019-03-11T06:46:10.717Z,56.59
2019-03-11T06:48:38.098Z,56.66
2019-03-11T06:51:05.507Z,56.58
2019-03-11T06:53:32.904Z,56.55
2019-03-11T06:56:00.352Z,56.24
2019-03-11T06:58:27.740Z,55.93
2019-03-11T07:00:55.257Z,55.60
2019-03-11T07:03:22.698Z,55.57
2019-03-11T07:05:50.109Z,55.24
2019-03-11T07:08:17.614Z,55.42
2019-03-11T07:10:45.186Z,55.17
2019-03-11T07:13:13.037Z,54.38
2019-03-11T07:15:40.495Z,53.56
2019-03-11T07:18:07.943Z,52.96
2019-03-11T07:20:35.340Z,52.63
2019-03-11T07:23:02.909Z,52.51
2019-03-11T07:25:30.336Z,52.27
2019-03-11T07:27:57.747Z,52.16
2019-03-11T07:30:25.802Z,52.01
2019-03-11T07:32:53.230Z,53.80
2019-03-11T07:35:20.723Z,52.81
2019-03-11T07:37:48.197Z,52.52
2019-03-11T07:40:15.615Z,52.71
2019-03-11T07:42:43.081Z,52.39
2019-03-11T07:45:11.314Z,52.15
2019-03-11T07:47:38.796Z,52.64
2019-03-11T07:50:06.247Z,52.68
2019-03-11T07:52:33.675Z,52.41
2019-03-11T07:55:01.157Z,52.73
2019-03-11T07:57:28.567Z,52.40
2019-03-11T07:59:55.979Z,51.65
2019-03-11T08:02:23.704Z,50.91
2019-03-11T08:04:51.099Z,50.43
2019-03-11T08:07:18.591Z,50.35
2019-03-11T08:09:46.030Z,49.99
2019-03-11T08:12:13.462Z,50.02
2019-03-11T08:14:40.860Z,50.54
2019-03-11T08:17:08.388Z,51.11
2019-03-11T08:19:35.686Z,51.88
2019-03-11T08:22:03.190Z,52.30
2019-03-11T08:24:30.633Z,52.38
2019-03-11T08:26:58.095Z,52.59
2019-03-11T08:29:25.507Z,52.61
2019-03-11T08:31:52.990Z,52.76
2019-03-11T08:36:54.439Z,52.82
2019-03-11T08:39:21.848Z,53.02
2019-03-11T08:41:49.246Z,53.70
2019-03-11T08:44:16.643Z,54.12
2019-03-11T08:46:44.669Z,54.44
2019-03-11T08:49:12.305Z,54.58
2019-03-11T08:51:39.688Z,54.93
2019-03-11T08:54:07.252Z,54.81
2019-03-11T08:56:34.730Z,54.66
2019-03-11T08:59:02.121Z,53.58
2019-03-11T09:01:29.525Z,54.31
2019-03-11T09:03:56.923Z,54.62
2019-03-11T09:06:24.658Z,54.30
2019-03-11T09:08:52.160Z,54.30
2019-03-11T09:11:19.588Z,54.23
2019-03-11T09:13:47.023Z,54.30
2019-03-11T09:16:14.422Z,53.77
2019-03-11T09:18:41.865Z,54.83
2019-03-11T09:21:09.270Z,57.61
2019-03-11T09:23:36.801Z,60.21
2019-03-11T09:26:04.182Z,61.75
2019-03-11T09:28:31.653Z,61.95
2019-03-11T09:30:59.012Z,61.70
2019-03-11T09:33:26.520Z,61.27
2019-03-11T09:35:53.965Z,60.51
2019-03-11T09:38:21.363Z,59.41
2019-03-11T09:40:49.108Z,58.25
2019-03-11T09:43:16.553Z,57.99
2019-03-11T09:45:44.020Z,56.97
2019-03-11T09:48:11.408Z,56.04
2019-03-11T09:50:38.823Z,54.68
2019-03-11T09:53:06.232Z,53.78
2019-03-11T09:55:33.807Z,52.63
2019-03-11T09:58:01.213Z,52.55
2019-03-11T10:00:28.703Z,53.38
2019-03-11T10:02:56.127Z,54.51
2019-03-11T10:05:23.602Z,54.71
2019-03-11T10:07:51.069Z,54.38
2019-03-11T10:10:18.686Z,52.98
2019-03-11T10:12:46.300Z,52.41
2019-03-11T10:15:16.290Z,51.12
2019-03-11T10:17:43.731Z,50.78
2019-03-11T10:20:11.231Z,49.78
2019-03-11T10:22:38.636Z,50.08
2019-03-11T10:25:06.096Z,50.68
2019-03-11T10:27:33.504Z,51.26
2019-03-11T10:30:00.995Z,51.97
2019-03-11T10:32:28.418Z,52.92
2019-03-11T10:34:55.842Z,54.07
2019-03-11T10:37:23.416Z,55.14
2019-03-11T10:39:51.839Z,55.70
2019-03-11T10:42:19.231Z,54.94
2019-03-11T10:44:46.852Z,53.18
2019-03-11T10:47:14.351Z,51.63
2019-03-11T10:49:41.753Z,50.63
2019-03-11T10:52:09.212Z,50.83
2019-03-11T10:54:36.686Z,51.63
2019-03-11T10:57:04.101Z,52.07
2019-03-11T10:59:31.491Z,52.21
2019-03-11T11:01:58.914Z,52.27
2019-03-11T11:04:26.300Z,51.88
2019-03-11T11:06:53.715Z,52.95
2019-03-11T11:09:21.119Z,54.53
2019-03-11T11:11:48.525Z,54.97
2019-03-11T11:14:15.911Z,55.81
2019-03-11T11:16:43.548Z,57.47
2019-03-11T11:19:10.966Z,58.52
2019-03-11T11:21:38.493Z,58.18
2019-03-11T11:24:06.072Z,59.83
2019-03-11T11:26:33.481Z,61.09
2019-03-11T11:29:00.933Z,61.46
2019-03-11T11:31:28.373Z,61.54
2019-03-11T11:33:57.041Z,62.50
2019-03-11T11:36:23.168Z,64.85
2019-03-11T11:38:50.630Z,65.67
2019-03-11T11:41:18.054Z,67.51
2019-03-11T11:43:45.477Z,68.56
2019-03-11T11:46:13.000Z,69.37
2019-03-11T11:48:40.440Z,69.76
2019-03-11T11:51:07.940Z,68.76
2019-03-11T11:53:35.369Z,67.83
2019-03-11T11:56:02.758Z,68.02
2019-03-11T11:58:31.316Z,66.58
2019-03-11T12:00:58.727Z,65.24
2019-03-11T12:03:26.135Z,61.67
2019-03-11T12:05:53.590Z,57.64
2019-03-11T12:08:21.097Z,55.42
2019-03-11T12:10:48.544Z,55.48
2019-03-11T12:13:15.961Z,57.18
2019-03-11T12:15:43.362Z,58.89
2019-03-11T12:18:10.738Z,60.76
2019-03-11T12:20:38.265Z,62.06
2019-03-11T12:23:05.787Z,62.78
2019-03-11T12:25:33.254Z,63.64
2019-03-11T12:28:01.460Z,63.84
2019-03-11T12:30:29.105Z,61.12
2019-03-11T12:32:56.570Z,57.31
2019-03-11T12:35:25.182Z,56.00
2019-03-11T12:37:52.678Z,57.26
2019-03-11T12:40:20.133Z,57.06
2019-03-11T12:42:47.605Z,58.23
2019-03-11T12:45:15.827Z,60.33
2019-03-11T12:47:43.335Z,58.52
2019-03-11T12:50:14.851Z,53.25
2019-03-11T12:52:40.843Z,50.47
2019-03-11T12:55:09.079Z,46.85
2019-03-11T12:57:36.509Z,45.68
2019-03-11T13:00:04.042Z,44.82
2019-03-11T13:02:31.876Z,44.87
2019-03-11T13:04:58.840Z,42.90
2019-03-11T13:07:25.794Z,43.44
2019-03-11T13:09:52.852Z,43.99
2019-03-11T13:12:19.841Z,44.72
2019-03-11T13:14:46.830Z,45.24
2019-03-11T13:17:14.043Z,45.76
2019-03-11T13:19:41.020Z,42.84
2019-03-11T13:22:08.204Z,40.01
2019-03-11T13:24:35.187Z,39.02
2019-03-11T13:27:02.263Z,41.25
2019-03-11T13:29:30.157Z,43.64
2019-03-11T13:31:57.130Z,47.40
2019-03-11T13:34:24.173Z,49.49
2019-03-11T13:36:51.099Z,48.13
2019-03-11T13:39:18.072Z,48.82
2019-03-11T13:41:44.999Z,49.67
2019-03-11T13:44:11.992Z,48.99
2019-03-11T13:46:39.018Z,46.59
2019-03-11T13:49:06.045Z,45.26
2019-03-11T13:51:33.063Z,45.30
2019-03-11T13:54:00.093Z,43.15
2019-03-11T13:56:27.122Z,43.01
2019-03-11T13:58:54.607Z,42.36
2019-03-11T14:01:21.631Z,42.49
2019-03-11T14:03:48.572Z,42.60
2019-03-11T14:06:15.651Z,42.70
2019-03-11T14:08:42.803Z,42.13
2019-03-11T14:11:09.792Z,42.87
2019-03-11T14:13:36.876Z,43.13
2019-03-11T14:16:04.309Z,45.04
2019-03-11T14:18:31.787Z,46.17
2019-03-11T14:20:59.175Z,47.68
2019-03-11T14:23:26.606Z,49.32
2019-03-11T14:25:54.013Z,49.46
2019-03-11T14:28:21.444Z,48.22
2019-03-11T14:30:48.873Z,46.16
2019-03-11T14:33:15.937Z,42.62
2019-03-11T14:35:42.917Z,40.55
2019-03-11T14:38:09.908Z,38.89
2019-03-11T14:40:37.319Z,37.40
2019-03-11T14:43:04.285Z,39.14
2019-03-11T14:45:32.416Z,40.81
2019-03-11T14:47:59.804Z,42.76
2019-03-11T14:50:27.299Z,43.96
2019-03-11T14:52:54.752Z,45.79
2019-03-11T14:55:22.163Z,46.63
2019-03-11T14:57:49.578Z,47.06
2019-03-11T15:00:18.558Z,44.54
2019-03-11T15:02:45.223Z,43.23
2019-03-11T15:05:12.935Z,40.74
2019-03-11T15:07:40.385Z,38.93
2019-03-11T15:10:07.814Z,37.35
2019-03-11T15:12:35.357Z,35.34
2019-03-11T15:15:02.825Z,33.52
2019-03-11T15:17:30.371Z,34.00
2019-03-11T15:19:57.782Z,33.84
2019-03-11T15:22:25.248Z,33.68
2019-03-11T15:24:52.663Z,33.46
2019-03-11T15:27:20.079Z,33.23
2019-03-11T15:29:47.554Z,34.08
2019-03-11T15:32:14.979Z,35.03
2019-03-11T15:34:42.366Z,35.27
2019-03-11T15:37:10.332Z,34.31
2019-03-11T15:39:37.756Z,33.71
2019-03-11T15:42:05.282Z,33.64
2019-03-11T15:44:32.993Z,33.63
2019-03-11T15:47:00.432Z,33.54
2019-03-11T15:49:27.868Z,33.86
2019-03-11T15:51:55.300Z,33.06
2019-03-11T15:54:22.718Z,32.40
2019-03-11T15:56:50.251Z,32.14
2019-03-11T15:59:17.677Z,33.38
2019-03-11T16:01:45.194Z,32.68
2019-03-11T16:04:12.631Z,32.05
2019-03-11T16:06:40.042Z,31.23
2019-03-11T16:09:07.454Z,31.09
2019-03-11T16:11:34.867Z,30.72
2019-03-11T16:14:02.454Z,30.84
2019-03-11T16:16:32.116Z,30.54
2019-03-11T16:18:57.262Z,31.16
2019-03-11T16:21:24.712Z,31.48
2019-03-11T16:23:52.126Z,31.28
2019-03-11T16:26:19.526Z,30.83
2019-03-11T16:28:48.282Z,29.84
2019-03-11T16:31:14.696Z,29.92
2019-03-11T16:33:42.590Z,29.23
2019-03-11T16:36:10.272Z,27.49
2019-03-11T16:38:37.779Z,25.53
2019-03-11T16:41:05.945Z,24.03
2019-03-11T16:43:33.417Z,23.37
2019-03-11T16:46:00.843Z,22.84
2019-03-11T16:48:28.245Z,22.00
2019-03-11T16:50:55.728Z,22.07
2019-03-11T16:53:23.161Z,21.78
2019-03-11T16:55:50.568Z,21.77
2019-03-11T16:58:18.012Z,21.76
2019-03-11T17:00:45.427Z,21.81
2019-03-11T17:03:12.866Z,24.20
2019-03-11T17:05:40.261Z,29.17
2019-03-11T17:08:07.236Z,32.51
2019-03-11T17:10:34.234Z,34.27
2019-03-11T17:13:01.758Z,35.01
2019-03-11T17:15:29.159Z,36.00
2019-03-11T17:17:57.451Z,36.78
2019-03-11T17:20:24.892Z,36.83
2019-03-11T17:22:52.296Z,38.04
2019-03-11T17:25:21.986Z,38.02
2019-03-11T17:27:49.515Z,38.01
2019-03-11T17:30:19.780Z,38.87
2019-03-11T17:32:47.232Z,39.41
2019-03-11T17:35:14.622Z,40.51
2019-03-11T17:37:42.064Z,43.47
2019-03-11T17:40:10.274Z,44.51
2019-03-11T17:42:38.330Z,45.47
2019-03-11T17:45:08.176Z,47.05
2019-03-11T17:47:35.691Z,48.33
2019-03-11T17:50:03.361Z,50.12
2019-03-11T17:52:30.917Z,50.86
2019-03-11T17:54:58.366Z,51.38
2019-03-11T17:57:25.805Z,51.99
2019-03-11T17:59:53.266Z,52.55
2019-03-11T18:02:20.836Z,52.81
2019-03-11T18:04:48.226Z,52.71
2019-03-11T18:07:15.778Z,52.94
2019-03-11T18:09:43.214Z,53.24
2019-03-11T18:12:10.619Z,53.44
2019-03-11T18:14:38.125Z,53.49
2019-03-11T18:17:05.651Z,53.72
2019-03-11T18:19:33.043Z,54.19
2019-03-11T18:22:00.506Z,54.55
2019-03-11T18:24:27.896Z,54.56
2019-03-11T18:26:55.728Z,55.01
2019-03-11T18:29:23.207Z,55.46
2019-03-11T18:32:01.292Z,55.52
2019-03-11T18:34:18.176Z,55.17
2019-03-11T18:36:45.636Z,55.33
2019-03-11T18:39:13.240Z,55.68
2019-03-11T18:41:40.808Z,56.22
2019-03-11T18:44:08.367Z,56.90
2019-03-11T18:46:35.758Z,57.85
2019-03-11T18:49:05.203Z,58.45
2019-03-11T18:51:30.594Z,58.83
2019-03-11T18:53:58.053Z,58.82
2019-03-11T18:56:25.458Z,58.59
2019-03-11T18:58:52.887Z,58.57
2019-03-11T19:01:20.306Z,58.69
2019-03-11T19:03:47.731Z,58.56
2019-03-11T19:06:15.147Z,58.85
2019-03-11T19:08:43.431Z,59.63
2019-03-11T19:11:10.842Z,60.14
2019-03-11T19:13:38.251Z,60.14
2019-03-11T19:16:05.727Z,60.61
2019-03-11T19:18:33.114Z,60.98
2019-03-11T19:21:00.551Z,61.55
2019-03-11T19:23:27.983Z,62.23
2019-03-11T19:25:55.404Z,62.93
2019-03-11T19:28:22.780Z,63.13
2019-03-11T19:30:50.190Z,63.02
2019-03-11T19:33:18.539Z,63.11
2019-03-11T19:35:46.019Z,63.67
2019-03-11T19:38:13.501Z,63.71
2019-03-11T19:40:40.916Z,63.52
2019-03-11T19:43:08.411Z,63.82
2019-03-11T19:45:35.981Z,63.97
2019-03-11T19:48:03.294Z,63.95
2019-03-11T19:50:30.819Z,64.27
2019-03-11T19:52:59.462Z,64.27
2019-03-11T19:55:25.721Z,64.34
2019-03-11T19:57:53.139Z,64.24
2019-03-11T20:00:20.556Z,63.94
2019-03-11T20:02:48.052Z,63.71
2019-03-11T20:05:18.795Z,64.12
2019-03-11T20:07:46.231Z,64.64
2019-03-11T20:10:13.697Z,64.62
2019-03-11T20:12:41.126Z,64.40
2019-03-11T20:15:08.519Z,64.40
2019-03-11T20:17:35.944Z,64.30
2019-03-11T20:20:03.398Z,64.00
2019-03-11T20:22:30.836Z,64.06
2019-03-11T20:24:59.347Z,63.92
2019-03-11T20:27:26.944Z,63.83
2019-03-11T20:29:54.287Z,64.25
2019-03-11T20:32:21.804Z,64.06
2019-03-11T20:34:49.332Z,64.23
2019-03-11T20:37:16.758Z,64.13
2019-03-11T20:39:44.201Z,64.02
2019-03-11T20:42:11.607Z,64.05
2019-03-11T20:44:39.163Z,64.31
2019-03-11T20:47:06.708Z,64.12
2019-03-11T20:49:34.128Z,63.68
2019-03-11T20:52:01.571Z,63.41
2019-03-11T20:54:30.845Z,63.09
2019-03-11T20:56:56.343Z,62.78
2019-03-11T20:59:23.746Z,62.95
2019-03-11T21:01:51.197Z,63.36
2019-03-11T21:04:18.634Z,63.43
2019-03-11T21:06:46.092Z,64.04
2019-03-11T21:09:13.796Z,64.44
2019-03-11T21:11:41.253Z,64.73
2019-03-11T21:14:08.799Z,65.08
2019-03-11T21:16:36.141Z,64.80
2019-03-11T21:19:03.680Z,64.71
2019-03-11T21:21:31.083Z,64.88
2019-03-11T21:24:02.248Z,65.30
2019-03-11T21:26:25.969Z,65.41
2019-03-11T21:28:53.385Z,65.34
2019-03-11T21:31:20.803Z,65.32
2019-03-11T21:33:58.100Z,65.33
2019-03-11T21:36:15.660Z,65.32
2019-03-11T21:38:43.077Z,65.20
2019-03-11T21:41:10.461Z,65.16
2019-03-11T21:43:37.949Z,65.11
2019-03-11T21:46:05.414Z,65.29
2019-03-11T21:48:32.795Z,65.49
2019-03-11T21:51:00.233Z,65.50
2019-03-11T21:53:27.616Z,65.66
2019-03-11T21:55:55.093Z,65.78
2019-03-11T21:58:22.493Z,66.03
2019-03-11T22:00:50.064Z,66.12
2019-03-11T22:03:17.466Z,66.04
2019-03-11T22:05:44.878Z,65.84
2019-03-11T22:08:12.281Z,65.70
2019-03-11T22:10:39.679Z,65.33
2019-03-11T22:13:07.080Z,65.36
2019-03-11T22:15:34.510Z,65.42
2019-03-11T22:18:01.893Z,65.65
2019-03-11T22:20:29.294Z,65.42
2019-03-11T22:22:56.703Z,65.14
2019-03-11T22:25:24.106Z,64.97
2019-03-11T22:27:51.497Z,64.96
2019-03-11T22:30:19.847Z,64.80
2019-03-11T22:32:47.256Z,64.63
2019-03-11T22:35:14.735Z,64.52
2019-03-11T22:37:42.184Z,64.53
2019-03-11T22:40:10.386Z,64.50
2019-03-11T22:42:37.803Z,64.57
2019-03-11T22:45:05.235Z,64.75
2019-03-11T22:47:32.622Z,64.81
2019-03-11T22:50:00.049Z,64.81
2019-03-11T22:52:27.478Z,64.68
2019-03-11T22:54:54.887Z,64.84
2019-03-11T22:57:22.296Z,64.91
2019-03-11T22:59:49.979Z,64.89
2019-03-11T23:02:17.432Z,64.85
2019-03-11T23:04:44.815Z,64.75
2019-03-11T23:07:12.206Z,64.66
2019-03-11T23:09:39.607Z,64.40
2019-03-11T23:12:07.020Z,64.53
2019-03-11T23:14:34.429Z,64.88
2019-03-11T23:17:01.827Z,65.18
2019-03-11T23:19:29.211Z,65.58
2019-03-11T23:21:56.674Z,65.84
2019-03-11T23:24:24.204Z,65.87
2019-03-11T23:26:51.598Z,65.73
2019-03-11T23:29:19.116Z,65.09
2019-03-11T23:31:46.512Z,64.80
2019-03-11T23:34:13.926Z,64.44
2019-03-11T23:36:41.299Z,64.53
2019-03-11T23:39:08.712Z,64.68
2019-03-11T23:41:36.116Z,64.44
2019-03-11T23:44:03.525Z,64.00
2019-03-11T23:46:30.930Z,63.96
2019-03-11T23:48:58.369Z,63.63
2019-03-11T23:51:26.319Z,63.51
2019-03-11T23:53:53.747Z,63.98
2019-03-11T23:56:21.249Z,64.27
2019-03-11T23:58:48.633Z,64.46
